Terminal Aerodrome Forecast
Issued by NWS

Home | Current Version | Previous Version | Graphics & Text | Print | Product List | Glossary On
Versions: 1 2 3 4 5 6 7 8 9 10 11 12 13 14 15 16 17 18 19 20 21 22 23 24 25 26 27 28
000
FTUS43 KICT 200538 AAA
TAFHUT
TAF AMD
KHUT 200538Z 2006/2106 35017KT 3SM +RA OVC005
      TEMPO 2006/2008 6SM -RA SCT005 OVC017
     FM200800 01013KT P6SM OVC005
     FM201500 36013G22KT P6SM BKN015=

USA.gov is the U.S. government's official web portal to all federal, state and local government web resources and services.